To NAV CANADA Home Page Login to a new session Search on AWWS site Feedback and Comments Disclaimer Vers la page française équivalente Tips FAQ What's new on the site To the Forecasts and Observations / NOTAM section To "File a Flight Plan" website Publications and other links Update of the User's profile FIC Telephone Numbers My Weather Data Folder Route Weather Data Regional Weather Data Local Weather Data To the Forecasts and Observations / NOTAM section
Request Generated 02/23/2017 at 20:45:43 UTC . Weather information available at that time is displayed.

METAR/TAF

HIGH LEVEL/AB    (show WxCam)

METAR CYOJ 232000Z CCA 00000KT 10SM -SN SCT030 OVC050 M12/M14 A3012
RMK SC3SC5 SLP232=
METAR CYOJ 232000Z 00000KT 10SM SCT030 OVC050 M12/M14 A3012 RMK
SC3SC5 SLP232=
METAR CYOJ 231900Z 00000KT 6SM -SN SCT030 OVC050 M12/M14 A3012 RMK
SC4SC4 SLP232=
METAR CYOJ 231800Z 15003KT 3SM -SN OVC028 M13/M15 A3011 RMK SC8
SLP231=

TAF AMD CYOJ 231909Z 2319/2407 15004KT 6SM -SN OVC025 TEMPO 2319/2323
11/2SM -SN VV012
BECMG 2320/2322 35005KT
FM232300 35012KT P6SM -SN BKN030 TEMPO 2323/2404 4SM -SN BKN020
RMK NXT FCST BY 240100Z=
Your time UTC time
Weather data provided by Environment Canada and NAV CANADA